Time;durP1;ratioP1;P1;durP2;ratioP2;P2;SDS_P1;SDS_P2;PMS_P1;PMS_P2;Temp;Humidity;BMP_temperature;BMP_pressure;BME280_temperature;BME280_humidity;BME280_pressure;Samples;Min_cycle;Max_cycle;Signal;HPM_P1;HPM_P2
2022/09/04 00:01:31;;;;;;;2.72;2.53;;;17.90;99.90;;;;;;5220716;28;20033;-74
2022/09/04 00:04:28;;;;;;;3.10;2.67;;;17.90;99.90;;;;;;5229040;28;20067;-74
2022/09/04 00:07:15;;;;;;;3.05;2.85;;;17.90;99.90;;;;;;5199180;28;20048;-73
2022/09/04 00:10:27;;;;;;;2.80;2.60;;;17.90;99.90;;;;;;5242135;28;20036;-74
2022/09/04 00:13:27;;;;;;;3.25;2.53;;;17.80;99.90;;;;;;5238169;28;20040;-73
2022/09/04 00:16:23;;;;;;;2.40;2.20;;;17.90;99.90;;;;;;5239644;28;20030;-73
2022/09/04 00:19:29;;;;;;;2.60;2.38;;;17.90;99.90;;;;;;5221681;28;20055;-73
2022/09/04 00:22:19;;;;;;;5.22;3.20;;;17.90;99.90;;;;;;5220420;28;20341;-73
2022/09/04 00:25:04;;;;;;;4.47;2.40;;;17.90;99.90;;;;;;5201072;28;20056;-73
2022/09/04 00:27:44;;;;;;;2.70;2.50;;;18.00;99.90;;;;;;5230767;28;20107;-73
2022/09/04 00:30:23;;;;;;;3.10;2.80;;;18.00;99.90;;;;;;5221177;28;20486;-73
2022/09/04 00:33:42;;;;;;;2.60;2.40;;;18.00;99.90;;;;;;5199761;28;20048;-73
2022/09/04 00:36:18;;;;;;;2.33;2.13;;;18.00;99.90;;;;;;5217587;28;20368;-73
2022/09/04 00:39:14;;;;;;;2.55;2.35;;;18.00;99.90;;;;;;5201276;28;20040;-73
2022/09/04 00:42:17;;;;;;;2.33;2.10;;;18.00;99.90;;;;;;5206563;28;20038;-73
2022/09/04 00:45:10;;;;;;;4.32;2.30;;;18.00;99.90;;;;;;5218165;28;20039;-73
2022/09/04 00:48:29;;;;;;;3.22;2.50;;;17.90;99.90;;;;;;5238757;28;20032;-74
2022/09/04 00:52:10;;;;;;;2.80;2.60;;;18.00;99.90;;;;;;5217391;28;20043;-73
2022/09/04 00:55:03;;;;;;;3.03;2.50;;;18.00;99.90;;;;;;5154118;28;20630;-73
2022/09/04 00:58:00;;;;;;;2.28;2.08;;;18.10;99.90;;;;;;5138005;28;20068;-75
2022/09/04 01:00:34;;;;;;;2.30;2.10;;;18.10;99.90;;;;;;5133565;28;20044;-73
2022/09/04 01:03:33;;;;;;;2.78;2.42;;;18.10;99.90;;;;;;5150913;28;20046;-73
2022/09/04 01:06:46;;;;;;;3.40;2.55;;;18.20;99.90;;;;;;5146343;28;20061;-73
2022/09/04 01:09:23;;;;;;;2.50;2.30;;;18.20;99.90;;;;;;5155955;28;20045;-73
2022/09/04 01:12:25;;;;;;;2.40;2.20;;;18.20;99.90;;;;;;5171900;28;20528;-73
2022/09/04 01:15:36;;;;;;;2.67;2.47;;;18.10;99.90;;;;;;5171884;28;20045;-73
2022/09/04 01:18:26;;;;;;;2.80;2.50;;;18.10;99.90;;;;;;5153678;28;20130;-74
2022/09/04 01:21:34;;;;;;;2.60;2.40;;;18.10;99.90;;;;;;5137523;28;20038;-73
2022/09/04 01:24:17;;;;;;;2.40;2.20;;;18.00;99.90;;;;;;5143117;28;20109;-73
2022/09/04 01:27:18;;;;;;;2.58;2.38;;;18.00;99.90;;;;;;5178442;28;20553;-73
2022/09/04 01:30:07;;;;;;;3.55;2.55;;;18.00;99.90;;;;;;5161187;28;20040;-75
2022/09/04 01:32:51;;;;;;;3.17;2.45;;;18.00;99.90;;;;;;5177279;28;20454;-74
2022/09/04 01:35:43;;;;;;;2.70;2.50;;;17.90;99.90;;;;;;5161212;28;20079;-74
2022/09/04 01:38:21;;;;;;;2.92;2.63;;;17.90;99.90;;;;;;5177493;28;20103;-74
2022/09/04 01:41:15;;;;;;;2.70;2.50;;;17.80;99.90;;;;;;5160560;28;20553;-74
2022/09/04 01:43:47;;;;;;;2.70;2.50;;;17.70;99.90;;;;;;5180252;28;20048;-74
2022/09/04 01:46:38;;;;;;;2.95;2.72;;;17.70;99.90;;;;;;5181081;28;20068;-73
2022/09/04 01:49:30;;;;;;;2.60;2.40;;;17.70;99.90;;;;;;5179580;28;20042;-74
2022/09/04 01:52:32;;;;;;;3.00;2.70;;;17.70;99.90;;;;;;5196550;28;20509;-74
2022/09/04 01:55:42;;;;;;;3.22;2.60;;;17.60;99.90;;;;;;5193965;28;20037;-72
2022/09/04 01:58:47;;;;;;;3.83;2.92;;;17.60;99.90;;;;;;5199203;28;20059;-74
2022/09/04 02:01:30;;;;;;;2.65;2.45;;;17.50;99.90;;;;;;5207047;28;20048;-72
2022/09/04 02:04:30;;;;;;;3.00;2.70;;;17.50;99.90;;;;;;5219626;28;20047;-74
2022/09/04 02:07:15;;;;;;;2.53;2.33;;;17.40;99.90;;;;;;5197616;28;20045;-74
2022/09/04 02:10:06;;;;;;;3.45;3.05;;;17.40;99.90;;;;;;5223805;28;20024;-75
2022/09/04 02:13:25;;;;;;;2.60;2.40;;;17.40;99.90;;;;;;5222859;28;20032;-74
2022/09/04 02:16:35;;;;;;;2.50;2.30;;;17.30;99.90;;;;;;5241298;28;20024;-74
2022/09/04 02:19:38;;;;;;;2.70;2.50;;;17.30;99.90;;;;;;5197149;28;20044;-74
2022/09/04 02:22:33;;;;;;;3.28;2.58;;;17.20;99.90;;;;;;5240289;28;20041;-74
2022/09/04 02:25:37;;;;;;;3.25;2.95;;;17.20;99.90;;;;;;5220360;28;20329;-72
2022/09/04 02:28:42;;;;;;;2.75;2.55;;;17.10;99.90;;;;;;5186945;28;20040;-73
2022/09/04 02:31:22;;;;;;;;;;;17.00;99.90;;;;;;5228857;28;20421;-74
2022/09/04 02:34:26;;;;;;;3.00;2.70;;;17.00;99.90;;;;;;5222918;28;19930;-72
2022/09/04 02:37:00;;;;;;;3.53;3.22;;;16.90;99.90;;;;;;5237211;28;20028;-74
2022/09/04 02:40:02;;;;;;;3.53;3.22;;;16.90;99.90;;;;;;5240480;28;20039;-73
2022/09/04 02:43:00;;;;;;;2.90;2.58;;;16.80;99.90;;;;;;5223004;28;20506;-72
2022/09/04 02:46:12;;;;;;;3.45;3.15;;;16.80;99.90;;;;;;5239751;28;20055;-72
2022/09/04 02:49:47;;;;;;;3.20;2.90;;;16.80;99.90;;;;;;5239892;28;20051;-74
2022/09/04 02:52:34;;;;;;;3.25;2.63;;;16.80;99.90;;;;;;5175033;28;20046;-74
2022/09/04 02:55:29;;;;;;;2.55;2.35;;;16.80;99.90;;;;;;5167428;28;20056;-72
2022/09/04 02:58:46;;;;;;;3.17;2.88;;;16.80;99.90;;;;;;5167676;28;20026;-73
2022/09/04 03:01:37;;;;;;;2.85;2.65;;;16.80;99.90;;;;;;5163459;28;20097;-74
2022/09/04 03:04:37;;;;;;;3.10;2.80;;;16.80;99.90;;;;;;5175955;28;20040;-72
2022/09/04 03:07:20;;;;;;;3.60;3.30;;;16.80;99.90;;;;;;5090089;29;20180;-73
2022/09/04 03:10:31;;;;;;;3.67;2.95;;;16.80;99.90;;;;;;5096875;29;20023;-73
2022/09/04 03:13:40;;;;;;;4.43;2.90;;;16.80;99.90;;;;;;5115993;29;20440;-73
2022/09/04 03:16:34;;;;;;;3.25;2.95;;;16.80;99.90;;;;;;5116430;29;20043;-74
2022/09/04 03:19:24;;;;;;;2.63;2.42;;;16.90;99.90;;;;;;5114299;29;20054;-73
2022/09/04 03:22:37;;;;;;;2.90;2.70;;;16.90;99.90;;;;;;5100595;29;20039;-73
2022/09/04 03:25:37;;;;;;;3.58;2.38;;;16.90;99.90;;;;;;5116095;29;20051;-73
2022/09/04 03:28:54;;;;;;;2.15;1.95;;;17.00;99.90;;;;;;5137613;28;20425;-72
2022/09/04 03:31:48;;;;;;;2.70;2.50;;;17.00;99.90;;;;;;5154537;28;20048;-74
2022/09/04 03:34:45;;;;;;;3.10;2.83;;;17.10;99.90;;;;;;5154793;28;20078;-73
2022/09/04 03:37:51;;;;;;;2.67;2.47;;;17.20;99.90;;;;;;5154398;28;20729;-74
2022/09/04 03:40:37;;;;;;;5.95;2.75;;;17.20;99.90;;;;;;5154007;28;20069;-73
2022/09/04 03:43:21;;;;;;;2.20;2.00;;;17.20;99.90;;;;;;5165158;28;20071;-73
2022/09/04 03:46:22;;;;;;;2.42;2.22;;;17.30;99.90;;;;;;5238666;28;20355;-73
2022/09/04 03:49:39;;;;;;;2.30;2.10;;;17.40;99.90;;;;;;5238826;28;20033;-74
2022/09/04 03:52:47;;;;;;;1.92;1.80;;;17.40;99.90;;;;;;5238209;28;20048;-74
2022/09/04 03:55:48;;;;;;;1.90;1.70;;;17.40;99.90;;;;;;5218952;28;20031;-75
2022/09/04 03:59:07;;;;;;;2.15;1.92;;;17.50;99.90;;;;;;5218690;28;20035;-74
2022/09/04 04:01:59;;;;;;;1.80;1.70;;;17.50;99.90;;;;;;5216835;28;20052;-74
2022/09/04 04:05:17;;;;;;;1.70;1.60;;;17.50;99.90;;;;;;5232748;28;20033;-74
2022/09/04 04:08:00;;;;;;;1.95;1.77;;;17.60;99.90;;;;;;5192393;28;20052;-74
2022/09/04 04:10:44;;;;;;;2.08;1.88;;;17.60;99.90;;;;;;5180806;28;20047;-74
2022/09/04 04:13:43;;;;;;;2.00;1.80;;;17.60;99.90;;;;;;5180337;28;20045;-74
2022/09/04 04:16:52;;;;;;;2.38;2.05;;;17.50;99.90;;;;;;5198214;28;20029;-75
2022/09/04 04:20:01;;;;;;;1.95;1.85;;;17.40;99.90;;;;;;5106135;28;20378;-73
2022/09/04 04:22:56;;;;;;;2.25;2.05;;;17.30;99.90;;;;;;5099155;28;20478;-72
2022/09/04 04:25:33;;;;;;;1.90;1.75;;;17.20;99.90;;;;;;5196908;28;20040;-73
2022/09/04 04:28:30;;;;;;;2.22;2.03;;;17.30;99.90;;;;;;5212160;28;20067;-73
2022/09/04 04:31:11;;;;;;;2.08;1.90;;;17.10;99.90;;;;;;5200332;28;20057;-73
2022/09/04 04:34:24;;;;;;;2.85;2.15;;;17.10;99.90;;;;;;5200482;28;20076;-73
2022/09/04 04:37:17;;;;;;;2.42;2.22;;;17.10;99.90;;;;;;5218398;28;20054;-73
2022/09/04 04:40:03;;;;;;;2.50;2.30;;;17.10;99.90;;;;;;5170218;28;20057;-73
2022/09/04 04:42:45;;;;;;;2.20;2.00;;;17.10;99.90;;;;;;5174883;28;20052;-73
2022/09/04 04:46:08;;;;;;;2.55;2.30;;;17.10;99.90;;;;;;5163293;28;20026;-73
2022/09/04 04:48:53;;;;;;;3.15;2.78;;;17.10;99.90;;;;;;5162701;28;20040;-72
2022/09/04 04:51:40;;;;;;;;;;;16.90;99.90;;;;;;5159686;28;20046;-73
2022/09/04 04:54:41;;;;;;;3.13;2.83;;;16.70;99.90;;;;;;5170729;28;20446;-73
2022/09/04 04:58:01;;;;;;;3.30;3.00;;;16.60;99.90;;;;;;5174678;28;20152;-72
2022/09/04 05:00:57;;;;;;;3.33;3.03;;;16.50;99.90;;;;;;5174797;28;20763;-74
2022/09/04 05:03:33;;;;;;;4.63;2.97;;;16.40;99.90;;;;;;5146989;28;20604;-73
2022/09/04 05:06:37;;;;;;;3.85;3.45;;;16.30;99.90;;;;;;5194580;28;20054;-73
2022/09/04 05:09:34;;;;;;;3.60;3.22;;;16.30;99.90;;;;;;5197297;28;20029;-71
2022/09/04 05:12:44;;;;;;;5.10;3.20;;;16.30;99.90;;;;;;5218098;28;20314;-73
2022/09/04 05:15:57;;;;;;;3.35;3.00;;;16.30;99.90;;;;;;5190654;28;20033;-72
2022/09/04 05:19:01;;;;;;;3.67;3.28;;;16.30;99.90;;;;;;5200438;28;21612;-72
2022/09/04 05:21:44;;;;;;;4.15;3.75;;;16.30;99.90;;;;;;5187256;28;20037;-72
2022/09/04 05:24:45;;;;;;;3.78;3.38;;;16.30;99.90;;;;;;5183758;28;20503;-72
2022/09/04 05:27:47;;;;;;;3.88;3.58;;;16.30;99.90;;;;;;5209774;28;20426;-72
2022/09/04 05:30:58;;;;;;;5.70;3.45;;;16.30;99.90;;;;;;5196033;28;20294;-72
2022/09/04 05:33:38;;;;;;;3.75;3.45;;;16.30;99.90;;;;;;5216777;28;20215;-72
2022/09/04 05:36:49;;;;;;;3.38;3.03;;;16.40;99.90;;;;;;5198578;28;20048;-72
2022/09/04 05:39:29;;;;;;;3.33;3.03;;;16.40;99.90;;;;;;5157642;28;20051;-72
2022/09/04 05:42:46;;;;;;;3.38;3.08;;;16.50;99.90;;;;;;5186398;28;20391;-72
2022/09/04 05:46:03;;;;;;;3.65;3.03;;;16.60;99.90;;;;;;5200608;28;20045;-71
2022/09/04 05:49:10;;;;;;;3.05;2.75;;;16.80;99.90;;;;;;5216826;28;20043;-72
2022/09/04 05:52:02;;;;;;;2.90;2.70;;;16.90;99.90;;;;;;5215738;28;20499;-74
2022/09/04 05:54:43;;;;;;;4.03;3.00;;;17.10;99.90;;;;;;5213096;28;20039;-74
2022/09/04 05:57:30;;;;;;;3.33;3.03;;;17.20;99.90;;;;;;5196031;28;20040;-73
2022/09/04 06:00:23;;;;;;;3.22;2.85;;;17.40;99.90;;;;;;5192921;28;20041;-73
2022/09/04 06:03:35;;;;;;;2.90;2.67;;;17.60;99.90;;;;;;5179590;28;20033;-73
2022/09/04 06:06:47;;;;;;;3.53;2.95;;;17.70;99.90;;;;;;5184306;28;20057;-73
2022/09/04 06:09:40;;;;;;;3.95;2.50;;;17.80;99.90;;;;;;5203523;28;20029;-73
2022/09/04 06:12:51;;;;;;;2.70;2.50;;;17.90;99.90;;;;;;5200919;28;20040;-73
2022/09/04 06:16:12;;;;;;;2.72;2.35;;;18.10;99.90;;;;;;5217659;28;20043;-73
2022/09/04 06:19:54;;;;;;;2.53;2.33;;;18.30;99.90;;;;;;5218267;28;20031;-72
2022/09/04 06:22:49;;;;;;;2.22;2.03;;;18.40;99.90;;;;;;5134830;28;20547;-72
2022/09/04 06:26:11;;;;;;;2.50;2.30;;;18.60;99.90;;;;;;5153257;28;20042;-73
2022/09/04 06:28:57;;;;;;;2.38;2.17;;;18.80;99.90;;;;;;5136123;28;20038;-71
2022/09/04 06:32:07;;;;;;;2.20;2.00;;;19.00;99.90;;;;;;5154435;28;20081;-71
2022/09/04 06:34:50;;;;;;;3.40;2.28;;;19.10;99.90;;;;;;5157548;28;20054;-71
2022/09/04 06:37:39;;;;;;;4.07;2.90;;;19.00;99.90;;;;;;5157111;28;20080;-72
2022/09/04 06:40:53;;;;;;;2.97;2.70;;;18.80;99.90;;;;;;5141320;28;20056;-72
2022/09/04 06:43:52;;;;;;;3.75;2.45;;;18.70;99.90;;;;;;5155659;28;20473;-71
2022/09/04 06:46:37;;;;;;;3.00;2.72;;;18.60;99.90;;;;;;5156571;28;20046;-71
2022/09/04 06:49:35;;;;;;;2.92;2.63;;;18.50;99.90;;;;;;5152758;28;20030;-71
2022/09/04 06:52:54;;;;;;;3.17;2.92;;;18.50;99.90;;;;;;5140679;28;20046;-74
2022/09/04 06:55:39;;;;;;;3.22;2.33;;;18.50;99.90;;;;;;5126377;28;20052;-72
2022/09/04 06:58:27;;;;;;;2.50;2.00;;;18.50;99.90;;;;;;5179961;28;20560;-72
2022/09/04 07:01:49;;;;;;;2.90;2.70;;;18.60;99.90;;;;;;5197800;28;20040;-71
2022/09/04 07:04:50;;;;;;;3.10;2.80;;;18.70;99.90;;;;;;5190387;28;20048;-72
2022/09/04 07:08:12;;;;;;;4.00;2.70;;;18.80;99.90;;;;;;5202413;28;20112;-72
2022/09/04 07:11:30;;;;;;;2.38;2.17;;;18.80;99.90;;;;;;5175995;28;20058;-72
2022/09/04 07:14:40;;;;;;;2.60;2.30;;;19.00;99.90;;;;;;5177330;28;20590;-72
2022/09/04 07:17:43;;;;;;;3.35;2.10;;;19.60;99.90;;;;;;5161351;28;20103;-73
2022/09/04 07:21:14;;;;;;;2.53;2.33;;;20.00;99.90;;;;;;5176818;28;20061;-71
2022/09/04 07:24:15;;;;;;;2.90;2.13;;;20.60;99.90;;;;;;5162909;28;20281;-71
2022/09/04 07:27:35;;;;;;;1.98;1.77;;;21.20;99.90;;;;;;5178698;28;20396;-73
2022/09/04 07:30:13;;;;;;;2.78;2.05;;;21.70;99.90;;;;;;5175965;28;20042;-73
2022/09/04 07:33:08;;;;;;;2.20;1.98;;;21.90;99.90;;;;;;5176097;28;20049;-73
2022/09/04 07:35:56;;;;;;;1.88;1.75;;;22.30;99.90;;;;;;5176000;28;20498;-72
2022/09/04 07:38:53;;;;;;;2.35;2.10;;;22.50;99.90;;;;;;5174824;28;20317;-72
2022/09/04 07:41:50;;;;;;;2.30;2.10;;;22.30;99.90;;;;;;5158213;28;20562;-72
2022/09/04 07:44:49;;;;;;;8.55;2.28;;;22.10;99.90;;;;;;5150882;28;20053;-73
2022/09/04 07:47:34;;;;;;;1.73;1.63;;;22.00;99.90;;;;;;5208009;28;20037;-74
2022/09/04 07:50:28;;;;;;;4.82;1.88;;;22.20;99.90;;;;;;5182024;28;20036;-72
2022/09/04 07:53:24;;;;;;;2.28;1.80;;;22.30;99.90;;;;;;5215891;28;20041;-74
2022/09/04 07:56:10;;;;;;;3.67;2.30;;;22.50;99.90;;;;;;5164204;28;20044;-72
2022/09/04 07:59:35;;;;;;;2.00;1.80;;;22.60;99.90;;;;;;5200943;28;20063;-72
2022/09/04 08:02:33;;;;;;;2.67;2.47;;;22.90;99.90;;;;;;5199811;28;20041;-72
2022/09/04 08:05:15;;;;;;;2.22;2.03;;;23.50;99.90;;;;;;5212346;28;20062;-73
2022/09/04 08:08:24;;;;;;;2.47;2.20;;;23.60;99.90;;;;;;5222262;28;20039;-72
2022/09/04 08:11:51;;;;;;;3.03;2.13;;;23.40;99.90;;;;;;5238663;28;20035;-72
2022/09/04 08:14:47;;;;;;;2.33;1.92;;;23.70;99.90;;;;;;5232426;28;20041;-74
2022/09/04 08:17:43;;;;;;;2.28;1.77;;;24.50;99.90;;;;;;5237038;28;20489;-72
2022/09/04 08:20:29;;;;;;;2.17;1.92;;;24.80;99.90;;;;;;5224094;28;20525;-72
2022/09/04 08:23:03;;;;;;;2.38;1.95;;;24.90;99.90;;;;;;5220638;28;20055;-72
2022/09/04 08:26:02;;;;;;;1.95;1.77;;;24.80;99.90;;;;;;5237928;28;20029;-72
2022/09/04 08:29:19;;;;;;;3.20;2.40;;;25.00;99.90;;;;;;5239312;28;20039;-73
2022/09/04 08:32:30;;;;;;;2.80;2.30;;;25.60;99.90;;;;;;5239496;28;20183;-74
2022/09/04 08:35:09;;;;;;;5.13;1.73;;;26.50;99.90;;;;;;5231963;28;20471;-73
2022/09/04 08:38:20;;;;;;;2.00;1.83;;;27.00;99.90;;;;;;5238363;28;20030;-73
2022/09/04 08:41:25;;;;;;;2.20;1.75;;;27.60;99.90;;;;;;5238166;28;20575;-72
2022/09/04 08:44:15;;;;;;;2.65;1.83;;;28.00;99.90;;;;;;5211463;28;20037;-72
2022/09/04 08:47:38;;;;;;;1.60;1.50;;;27.80;99.90;;;;;;5217929;28;20474;-73
2022/09/04 08:50:43;;;;;;;2.38;2.17;;;27.80;99.90;;;;;;5218278;28;20043;-74
2022/09/04 08:54:15;;;;;;;2.53;2.33;;;27.50;99.90;;;;;;5237086;28;20570;-74
2022/09/04 08:57:33;;;;;;;2.13;1.92;;;27.60;99.90;;;;;;5206991;28;20040;-74
2022/09/04 09:00:48;;;;;;;2.20;2.00;;;27.60;99.90;;;;;;5229933;28;20062;-73
2022/09/04 09:03:42;;;;;;;2.22;2.00;;;27.70;99.90;;;;;;5234600;28;20032;-72
2022/09/04 09:06:19;;;;;;;2.15;1.95;;;27.40;99.90;;;;;;5207624;28;20040;-72
2022/09/04 09:09:03;;;;;;;2.08;1.88;;;27.20;99.90;;;;;;5234192;28;20028;-72
2022/09/04 09:12:20;;;;;;;2.20;2.03;;;27.60;99.90;;;;;;5217048;28;20893;-74
2022/09/04 09:15:29;;;;;;;2.77;2.30;;;28.00;99.90;;;;;;5233635;28;20462;-72
2022/09/04 09:18:36;;;;;;;1.90;1.75;;;28.10;99.90;;;;;;5217429;28;20249;-72
2022/09/04 09:21:16;;;;;;;1.90;1.80;;;28.40;99.90;;;;;;5185074;28;20593;-72
2022/09/04 09:24:37;;;;;;;2.10;1.90;;;28.80;99.90;;;;;;5234974;28;20399;-73
2022/09/04 09:28:02;;;;;;;2.10;2.00;;;29.40;99.90;;;;;;5217325;28;20048;-73
2022/09/04 09:31:04;;;;;;;2.25;2.05;;;29.00;99.90;;;;;;5216762;28;20541;-72
2022/09/04 09:33:59;;;;;;;2.28;2.08;;;28.00;99.90;;;;;;5233686;28;20033;-72
2022/09/04 09:37:09;;;;;;;2.25;2.00;;;27.20;99.90;;;;;;5229354;28;20056;-74
2022/09/04 09:40:08;;;;;;;2.38;2.17;;;26.70;99.90;;;;;;5235168;28;20044;-73
2022/09/04 09:42:57;;;;;;;2.25;2.08;;;27.00;99.90;;;;;;5235421;28;20044;-74
2022/09/04 09:46:44;;;;;;;2.33;2.13;;;27.20;99.90;;;;;;5235762;28;20032;-72
2022/09/04 09:49:46;;;;;;;2.85;2.20;;;26.20;99.90;;;;;;5171401;28;20586;-72
2022/09/04 09:52:54;;;;;;;2.47;2.28;;;26.30;99.90;;;;;;5139021;28;20037;-74
2022/09/04 09:56:24;;;;;;;2.88;2.35;;;26.70;99.90;;;;;;5168092;28;20045;-72
2022/09/04 09:59:20;;;;;;;2.75;1.83;;;26.70;99.90;;;;;;5172756;28;20038;-72
2022/09/04 10:02:25;;;;;;;2.30;2.10;;;25.60;99.90;;;;;;5170894;28;20233;-72
2022/09/04 10:05:32;;;;;;;2.40;2.15;;;26.80;99.90;;;;;;5156222;28;20190;-73
2022/09/04 10:08:37;;;;;;;2.03;1.83;;;27.50;99.90;;;;;;5155297;28;20045;-72
2022/09/04 10:11:53;;;;;;;2.08;1.95;;;27.80;99.90;;;;;;5156229;28;20049;-73
2022/09/04 10:14:54;;;;;;;2.10;1.90;;;28.20;99.90;;;;;;5133914;28;20053;-72
2022/09/04 10:17:50;;;;;;;2.47;1.98;;;27.70;99.90;;;;;;5151555;28;20042;-73
2022/09/04 10:21:19;;;;;;;2.13;1.92;;;28.00;99.90;;;;;;5138168;28;20042;-71
2022/09/04 10:24:25;;;;;;;2.80;2.20;;;28.00;99.90;;;;;;5190171;28;20036;-72
2022/09/04 10:27:24;;;;;;;3.72;1.90;;;27.90;99.90;;;;;;5218932;28;20379;-71
2022/09/04 10:30:13;;;;;;;3.05;2.20;;;28.10;99.90;;;;;;5217191;28;20363;-73
2022/09/04 10:33:31;;;;;;;2.97;2.10;;;27.40;99.90;;;;;;5203544;28;20029;-72
2022/09/04 10:36:42;;;;;;;1.90;1.77;;;26.30;99.90;;;;;;5171478;28;20048;-71
2022/09/04 10:43:13;;;;;;;2.65;2.25;;;26.80;99.90;;;;;;5163294;28;20480;-73
2022/09/04 10:46:08;;;;;;;1.83;1.67;;;26.70;99.90;;;;;;5159182;28;20038;-71
2022/09/04 10:49:19;;;;;;;3.00;2.03;;;26.90;99.90;;;;;;5152170;28;20057;-73
2022/09/04 10:52:34;;;;;;;1.73;1.60;;;26.90;99.90;;;;;;5158645;28;20041;-71
2022/09/04 10:55:41;;;;;;;1.93;1.70;;;27.30;99.90;;;;;;5170737;28;20123;-71
2022/09/04 10:58:28;;;;;;;2.40;1.83;;;26.90;99.90;;;;;;5157782;28;20283;-72
2022/09/04 11:01:40;;;;;;;3.05;1.65;;;27.10;99.90;;;;;;5173471;28;20038;-71
2022/09/04 11:04:35;;;;;;;2.60;1.75;;;27.30;99.90;;;;;;5175087;28;20045;-72
2022/09/04 11:07:57;;;;;;;1.70;1.60;;;27.90;99.90;;;;;;5192146;28;20329;-72
2022/09/04 11:11:05;;;;;;;2.13;1.85;;;28.00;99.90;;;;;;5237185;28;20315;-73
2022/09/04 11:14:14;;;;;;;1.88;1.77;;;27.50;99.90;;;;;;5215050;28;20336;-71
2022/09/04 11:17:20;;;;;;;2.42;2.22;;;27.40;99.90;;;;;;5237731;28;20027;-73
2022/09/04 11:20:23;;;;;;;3.28;2.28;;;27.00;99.90;;;;;;5238043;28;20055;-73
2022/09/04 11:23:41;;;;;;;4.07;1.85;;;26.60;99.90;;;;;;5237986;28;20044;-72
2022/09/04 11:26:40;;;;;;;2.17;1.90;;;26.30;99.90;;;;;;5237782;28;20036;-72
2022/09/04 11:29:45;;;;;;;2.33;2.13;;;25.80;99.90;;;;;;5238323;28;20044;-72
2022/09/04 11:32:22;;;;;;;2.10;1.80;;;25.50;99.90;;;;;;5220116;28;20016;-72
2022/09/04 11:35:33;;;;;;;2.40;1.88;;;25.80;99.90;;;;;;5238753;28;20378;-72
2022/09/04 11:38:12;;;;;;;2.72;1.95;;;26.20;99.90;;;;;;5237543;28;20040;-72
2022/09/04 11:41:14;;;;;;;2.03;1.80;;;26.40;99.90;;;;;;5235925;28;20479;-73
2022/09/04 11:44:24;;;;;;;2.33;1.95;;;26.60;99.90;;;;;;5235324;28;20512;-72
2022/09/04 11:47:18;;;;;;;1.80;1.70;;;26.50;99.90;;;;;;5219026;28;20059;-73
2022/09/04 11:50:29;;;;;;;2.40;2.20;;;26.90;99.90;;;;;;5235965;28;20032;-72
2022/09/04 11:53:35;;;;;;;1.98;1.77;;;27.60;99.90;;;;;;5220312;28;20040;-73
2022/09/04 11:56:40;;;;;;;1.98;1.80;;;27.60;99.90;;;;;;5238042;28;20199;-71
2022/09/04 11:59:44;;;;;;;;;;;28.20;99.90;;;;;;5239262;28;20032;-72
2022/09/04 12:03:09;;;;;;;1.92;1.73;;;27.60;99.90;;;;;;5220334;28;20209;-73
2022/09/04 12:06:18;;;;;;;1.97;1.77;;;27.90;99.90;;;;;;5215136;28;20056;-74
2022/09/04 12:09:08;;;;;;;2.83;2.22;;;28.00;99.90;;;;;;5192928;28;20040;-71
2022/09/04 12:12:10;;;;;;;2.13;1.80;;;27.70;99.90;;;;;;5214777;28;20036;-71
2022/09/04 12:15:08;;;;;;;2.20;2.00;;;27.20;99.90;;;;;;5216851;28;20029;-72
2022/09/04 12:18:04;;;;;;;2.20;2.00;;;27.20;99.90;;;;;;5194612;28;20471;-71
2022/09/04 12:20:41;;;;;;;2.10;1.77;;;27.50;99.90;;;;;;5217755;28;20325;-72
2022/09/04 12:23:42;;;;;;;1.95;1.85;;;27.70;99.90;;;;;;5210490;28;20103;-72
2022/09/04 12:26:20;;;;;;;2.05;1.95;;;28.00;99.90;;;;;;5216475;28;20029;-74
2022/09/04 12:29:27;;;;;;;2.15;1.88;;;28.10;99.90;;;;;;5215082;28;20043;-72
2022/09/04 12:32:41;;;;;;;2.00;1.80;;;28.30;99.90;;;;;;5173618;28;20572;-72
2022/09/04 12:35:47;;;;;;;3.42;2.00;;;27.80;99.90;;;;;;5173037;28;20032;-72
2022/09/04 12:38:54;;;;;;;1.70;1.60;;;28.10;99.90;;;;;;5172749;28;20036;-73
2022/09/04 12:41:34;;;;;;;1.90;1.80;;;28.00;99.90;;;;;;5155821;28;20667;-72
2022/09/04 12:44:37;;;;;;;2.63;2.00;;;27.90;99.90;;;;;;5174208;28;20046;-72
2022/09/04 12:47:41;;;;;;;2.42;1.80;;;27.80;99.90;;;;;;5156216;28;20064;-72
2022/09/04 12:50:33;;;;;;;3.13;1.95;;;27.50;99.90;;;;;;5170267;28;20042;-72
2022/09/04 12:53:18;;;;;;;2.13;1.92;;;27.10;99.90;;;;;;5158239;28;20045;-72
2022/09/04 12:56:04;;;;;;;2.85;2.10;;;26.60;99.90;;;;;;5156679;28;20034;-73
2022/09/04 12:59:18;;;;;;;1.98;1.80;;;26.40;99.90;;;;;;5173840;28;20081;-73
2022/09/04 13:02:20;;;;;;;1.92;1.83;;;26.40;99.90;;;;;;5155909;28;20041;-74
2022/09/04 13:05:32;;;;;;;2.20;2.00;;;26.20;99.90;;;;;;5147667;28;20075;-73
2022/09/04 13:08:26;;;;;;;3.00;2.05;;;25.90;99.90;;;;;;5197835;28;20036;-73
2022/09/04 13:11:09;;;;;;;2.38;1.98;;;26.40;99.90;;;;;;5234928;28;20039;-73
2022/09/04 13:14:08;;;;;;;1.73;1.63;;;26.50;99.90;;;;;;5233929;28;20048;-73
2022/09/04 13:16:50;;;;;;;1.73;1.63;;;26.80;99.90;;;;;;5218829;28;20033;-73
2022/09/04 13:20:15;;;;;;;1.95;1.60;;;27.00;99.90;;;;;;5218638;28;20017;-73
2022/09/04 13:23:42;;;;;;;4.43;1.80;;;27.80;99.90;;;;;;5235429;28;20059;-71
2022/09/04 13:26:32;;;;;;;2.10;1.70;;;28.30;99.90;;;;;;5234931;28;20603;-72
2022/09/04 13:29:20;;;;;;;1.75;1.65;;;29.40;99.90;;;;;;5236667;28;20032;-73
2022/09/04 13:32:07;;;;;;;2.28;1.92;;;29.40;99.90;;;;;;5215950;28;20031;-73
2022/09/04 13:35:20;;;;;;;1.90;1.80;;;28.80;99.90;;;;;;5220279;28;20387;-73
2022/09/04 13:38:54;;;;;;;2.45;1.75;;;28.50;99.90;;;;;;5173015;28;20051;-72
2022/09/04 13:41:56;;;;;;;6.00;2.08;;;28.10;99.90;;;;;;5174868;28;20125;-74
2022/09/04 13:44:53;;;;;;;1.90;1.80;;;28.60;99.90;;;;;;5192909;28;20536;-72
2022/09/04 13:47:26;;;;;;;3.95;2.10;;;28.90;99.90;;;;;;5241928;28;20058;-72
2022/09/04 13:50:21;;;;;;;2.20;2.00;;;28.50;99.90;;;;;;5242350;28;20215;-71
2022/09/04 13:53:15;;;;;;;;;;;27.80;99.90;;;;;;5224662;28;20038;-71
2022/09/04 13:55:56;;;;;;;2.75;2.10;;;28.40;99.90;;;;;;5241109;28;20140;-73
2022/09/04 13:58:50;;;;;;;3.15;1.73;;;28.20;99.90;;;;;;5223743;28;20356;-73
2022/09/04 14:01:28;;;;;;;2.63;2.00;;;28.30;99.90;;;;;;5239198;28;20048;-73
2022/09/04 14:04:25;;;;;;;2.10;1.90;;;28.30;99.90;;;;;;5222669;28;20040;-71
2022/09/04 14:07:13;;;;;;;2.38;1.92;;;28.60;99.90;;;;;;5197338;28;20045;-69
2022/09/04 14:09:51;;;;;;;2.30;2.10;;;29.70;99.90;;;;;;5245833;28;20058;-72
2022/09/04 14:13:00;;;;;;;2.42;2.22;;;28.90;99.90;;;;;;5223818;28;20572;-72
2022/09/04 14:15:57;;;;;;;2.50;2.30;;;28.30;99.90;;;;;;5238821;28;20810;-72
2022/09/04 14:18:59;;;;;;;2.17;1.98;;;27.40;99.90;;;;;;5225273;28;20031;-72
2022/09/04 14:22:01;;;;;;;3.92;2.40;;;26.90;99.90;;;;;;5241806;28;20036;-72
2022/09/04 14:24:41;;;;;;;3.33;2.20;;;26.40;99.90;;;;;;5241190;28;20032;-71
2022/09/04 14:27:40;;;;;;;2.30;2.10;;;26.50;99.90;;;;;;5236351;28;20452;-72
2022/09/04 14:30:23;;;;;;;3.67;2.30;;;27.00;99.90;;;;;;5222532;28;20263;-72
2022/09/04 14:32:59;;;;;;;3.33;2.05;;;28.20;99.90;;;;;;5243596;28;20033;-69
2022/09/04 14:36:13;;;;;;;2.92;2.10;;;28.90;99.90;;;;;;5239110;28;21007;-72
2022/09/04 14:39:12;;;;;;;2.87;2.23;;;30.20;99.90;;;;;;5241932;28;20502;-71
2022/09/04 14:42:18;;;;;;;2.35;2.13;;;31.50;99.90;;;;;;5226071;28;20036;-72
2022/09/04 14:45:12;;;;;;;2.60;2.13;;;33.30;99.90;;;;;;5221631;28;20044;-72
2022/09/04 14:48:06;;;;;;;1.92;1.80;;;33.50;99.90;;;;;;5243755;28;20057;-72
2022/09/04 14:50:50;;;;;;;2.22;2.03;;;32.40;99.90;;;;;;5220709;28;20040;-71
2022/09/04 14:53:32;;;;;;;3.63;2.05;;;33.30;99.90;;;;;;5223198;28;20399;-72
2022/09/04 14:56:06;;;;;;;2.92;2.10;;;31.70;99.90;;;;;;5236730;28;20047;-73
2022/09/04 14:58:52;;;;;;;2.42;2.00;;;31.50;99.90;;;;;;5222067;28;20039;-73
2022/09/04 15:01:32;;;;;;;2.63;2.42;;;30.90;99.90;;;;;;5211485;28;20036;-74
2022/09/04 15:04:35;;;;;;;1.92;1.80;;;30.80;99.90;;;;;;5221988;28;20024;-72
2022/09/04 15:07:34;;;;;;;2.55;2.00;;;28.90;99.90;;;;;;5222333;28;20062;-72
2022/09/04 15:10:48;;;;;;;2.33;2.13;;;28.60;99.90;;;;;;5237890;28;20017;-72
2022/09/04 15:13:52;;;;;;;1.88;1.77;;;29.60;99.90;;;;;;5215359;28;20251;-72
2022/09/04 15:16:48;;;;;;;2.17;1.90;;;31.10;99.90;;;;;;5235977;28;20044;-73
2022/09/04 15:19:29;;;;;;;4.60;2.20;;;31.90;99.90;;;;;;5222811;28;20288;-73
2022/09/04 15:22:15;;;;;;;2.13;1.92;;;32.30;99.90;;;;;;5239739;28;20042;-73
2022/09/04 15:24:48;;;;;;;2.22;2.03;;;31.70;99.90;;;;;;5237279;28;20047;-73
2022/09/04 15:27:34;;;;;;;2.20;2.00;;;30.30;99.90;;;;;;5243413;28;20043;-73
2022/09/04 15:30:36;;;;;;;2.85;2.20;;;31.00;99.90;;;;;;5226581;28;20538;-71
2022/09/04 15:33:19;;;;;;;2.40;2.20;;;31.60;99.90;;;;;;5218959;28;20503;-73
2022/09/04 15:36:22;;;;;;;2.88;2.20;;;30.90;99.90;;;;;;5219544;28;20051;-73
2022/09/04 15:39:00;;;;;;;2.40;2.20;;;30.60;99.90;;;;;;5219112;28;20043;-73